Time;durP1;ratioP1;P1;durP2;ratioP2;P2;SDS_P1;SDS_P2;PMS_P1;PMS_P2;Temp;Humidity;BMP_temperature;BMP_pressure;BME280_temperature;BME280_humidity;BME280_pressure;Samples;Min_cycle;Max_cycle;Signal;HPM_P1;HPM_P2
2022/01/14 05:06:40;;;;;;;2.53;2.33;;;-4.30;99.90;;;;;;5029992;28;20225;-70
2022/01/14 05:09:17;;;;;;;2.42;2.25;;;-4.40;99.90;;;;;;5035343;28;20197;-72
2022/01/14 05:11:52;;;;;;;2.60;2.40;;;-4.40;99.90;;;;;;5034986;28;20189;-70
2022/01/14 05:14:19;;;;;;;3.08;2.50;;;-4.40;99.90;;;;;;5035195;28;20209;-67
2022/01/14 05:16:46;;;;;;;2.28;2.17;;;-4.40;99.90;;;;;;5034673;28;20208;-67
2022/01/14 05:19:13;;;;;;;2.30;2.20;;;-4.40;99.90;;;;;;5034586;28;20668;-68
2022/01/14 05:21:41;;;;;;;2.10;2.00;;;-4.40;99.90;;;;;;5034588;28;20672;-67
2022/01/14 05:24:08;;;;;;;2.05;1.95;;;-4.40;99.90;;;;;;5035005;28;20209;-70
2022/01/14 05:26:35;;;;;;;1.98;1.83;;;-4.40;99.90;;;;;;5034927;28;20632;-69
2022/01/14 05:29:02;;;;;;;2.22;2.13;;;-4.40;99.90;;;;;;5034542;28;20664;-69
2022/01/14 05:31:42;;;;;;;2.30;2.20;;;-4.40;99.90;;;;;;5034832;28;20244;-69
2022/01/14 05:34:09;;;;;;;2.50;2.40;;;-4.40;99.90;;;;;;5034788;28;20288;-69
2022/01/14 05:36:36;;;;;;;2.85;2.65;;;-4.40;99.90;;;;;;5034675;28;20691;-69
2022/01/14 05:39:06;;;;;;;2.85;2.63;;;-4.30;99.90;;;;;;5035497;28;20292;-69
2022/01/14 05:41:33;;;;;;;2.22;2.13;;;-4.30;99.90;;;;;;5034389;28;20726;-69
2022/01/14 05:44:01;;;;;;;2.40;2.20;;;-4.30;99.90;;;;;;5035854;28;20197;-69
2022/01/14 05:46:28;;;;;;;2.03;1.92;;;-4.40;99.90;;;;;;5035720;28;20596;-69
2022/01/14 05:48:55;;;;;;;2.42;2.33;;;-4.40;99.90;;;;;;5036116;28;20201;-69
2022/01/14 05:51:22;;;;;;;2.22;2.13;;;-4.40;99.90;;;;;;5034751;28;20194;-70
2022/01/14 05:53:49;;;;;;;1.98;1.98;;;-4.40;99.90;;;;;;5034723;28;20208;-70
2022/01/14 05:56:17;;;;;;;2.10;2.00;;;-4.40;99.90;;;;;;5034216;28;20257;-70
2022/01/14 05:58:44;;;;;;;1.90;1.80;;;-4.40;99.90;;;;;;5036692;28;20284;-70
2022/01/14 06:01:11;;;;;;;1.77;1.67;;;-4.40;99.90;;;;;;5035576;28;20264;-70
2022/01/14 06:03:38;;;;;;;1.80;1.70;;;-4.40;99.90;;;;;;5035463;28;20244;-69
2022/01/14 06:06:04;;;;;;;2.10;2.00;;;-4.40;99.90;;;;;;5035391;28;20321;-70
2022/01/14 06:08:32;;;;;;;1.95;1.85;;;-4.40;99.90;;;;;;5036570;28;20308;-67
2022/01/14 06:10:59;;;;;;;1.80;1.80;;;-4.40;99.90;;;;;;5034946;28;20202;-67
2022/01/14 06:13:27;;;;;;;2.33;1.70;;;-4.40;99.90;;;;;;5034055;28;20240;-67
2022/01/14 06:15:54;;;;;;;1.58;1.58;;;-4.40;99.90;;;;;;5033572;28;20308;-67
2022/01/14 06:18:21;;;;;;;1.85;1.70;;;-4.40;99.90;;;;;;5034086;28;20307;-68
2022/01/14 06:20:48;;;;;;;1.88;1.80;;;-4.50;99.90;;;;;;5033894;28;20228;-69
2022/01/14 06:23:15;;;;;;;1.50;1.50;;;-4.50;99.90;;;;;;5033828;28;20272;-72
2022/01/14 06:25:42;;;;;;;1.80;1.77;;;-4.50;99.90;;;;;;5033708;28;20711;-71
2022/01/14 06:28:09;;;;;;;1.58;1.58;;;-4.50;99.90;;;;;;5033953;28;20287;-71
2022/01/14 06:30:37;;;;;;;1.83;1.75;;;-4.50;99.90;;;;;;5033577;28;20564;-71
2022/01/14 06:33:04;;;;;;;1.65;1.55;;;-4.50;99.90;;;;;;5033923;28;20201;-69
2022/01/14 06:35:31;;;;;;;1.88;1.77;;;-4.50;99.90;;;;;;5033456;28;20661;-69
2022/01/14 06:37:59;;;;;;;1.90;1.80;;;-4.50;99.90;;;;;;5033873;28;20295;-69
2022/01/14 06:40:26;;;;;;;1.95;1.90;;;-4.50;99.90;;;;;;5033660;28;20579;-69
2022/01/14 06:42:53;;;;;;;1.67;1.67;;;-4.40;99.90;;;;;;5033821;28;20227;-69
2022/01/14 06:45:21;;;;;;;1.85;1.75;;;-4.40;99.90;;;;;;5033302;28;20703;-69
2022/01/14 06:47:49;;;;;;;2.30;2.20;;;-4.40;99.90;;;;;;5033683;28;20571;-69
2022/01/14 06:50:16;;;;;;;2.00;1.90;;;-4.40;99.90;;;;;;5033755;28;20292;-69
2022/01/14 06:52:43;;;;;;;2.38;2.17;;;-4.40;99.90;;;;;;5033672;28;20388;-69
2022/01/14 06:55:11;;;;;;;2.33;2.13;;;-4.40;99.90;;;;;;5033572;28;20307;-69
2022/01/14 06:57:38;;;;;;;2.15;2.05;;;-4.40;99.90;;;;;;5032780;28;20558;-67
2022/01/14 07:00:07;;;;;;;2.42;2.33;;;-4.30;99.90;;;;;;5033027;28;20296;-68
2022/01/14 07:02:34;;;;;;;2.13;2.10;;;-4.30;99.90;;;;;;5033549;28;20277;-69
2022/01/14 07:05:02;;;;;;;2.28;2.15;;;-4.30;99.90;;;;;;5033635;28;20225;-69
2022/01/14 07:07:29;;;;;;;3.05;2.17;;;-4.30;99.90;;;;;;5033177;28;20304;-69
2022/01/14 07:09:57;;;;;;;2.28;2.10;;;-4.30;99.90;;;;;;5033734;28;20368;-69
2022/01/14 07:12:25;;;;;;;1.90;1.85;;;-4.30;99.90;;;;;;5033234;28;20284;-69
2022/01/14 07:14:52;;;;;;;2.15;2.08;;;-4.30;99.90;;;;;;5033386;28;20221;-69
2022/01/14 07:17:19;;;;;;;2.25;2.15;;;-4.20;99.90;;;;;;5033441;28;20201;-70
2022/01/14 07:19:49;;;;;;;2.30;2.20;;;-4.20;99.90;;;;;;5033026;28;20297;-67
2022/01/14 07:22:17;;;;;;;1.90;1.80;;;-4.20;99.90;;;;;;5033240;28;20316;-67
2022/01/14 07:24:44;;;;;;;1.88;1.77;;;-4.20;99.90;;;;;;5032868;28;20259;-68
2022/01/14 07:27:11;;;;;;;1.88;1.77;;;-4.20;99.90;;;;;;5033345;28;20212;-69
2022/01/14 07:29:38;;;;;;;2.00;1.90;;;-4.10;99.90;;;;;;5032876;28;20204;-69
2022/01/14 07:32:05;;;;;;;1.75;1.75;;;-4.10;99.90;;;;;;5033278;28;20204;-69
2022/01/14 07:34:33;;;;;;;2.10;2.00;;;-4.10;99.90;;;;;;5033421;28;20307;-70
2022/01/14 07:37:00;;;;;;;2.40;2.30;;;-4.10;99.90;;;;;;5032753;28;20208;-67
2022/01/14 07:39:28;;;;;;;2.40;2.30;;;-4.10;99.90;;;;;;5032936;28;20225;-68
2022/01/14 07:41:55;;;;;;;4.28;2.75;;;-4.10;99.90;;;;;;5033383;28;20308;-68
2022/01/14 07:44:22;;;;;;;2.50;2.40;;;-4.10;99.90;;;;;;5032612;28;20690;-68
2022/01/14 07:46:49;;;;;;;2.95;2.65;;;-4.00;99.90;;;;;;5032901;28;20232;-68
2022/01/14 07:49:17;;;;;;;2.70;2.50;;;-4.00;99.90;;;;;;5032544;28;20647;-68
2022/01/14 07:51:43;;;;;;;3.20;3.00;;;-4.00;99.90;;;;;;5032494;28;20636;-68
2022/01/14 07:54:10;;;;;;;3.03;2.83;;;-3.80;99.90;;;;;;5032513;28;20208;-68
2022/01/14 07:56:45;;;;;;;4.07;3.03;;;-3.60;99.90;;;;;;5032804;28;20292;-67
2022/01/14 07:59:13;;;;;;;3.00;2.80;;;-3.30;99.90;;;;;;5032891;28;20299;-68
2022/01/14 08:01:41;;;;;;;3.63;3.33;;;-2.70;99.90;;;;;;5032841;28;20228;-68
2022/01/14 08:04:08;;;;;;;4.05;3.60;;;-1.70;99.90;;;;;;5032698;28;20779;-68
2022/01/14 08:06:38;;;;;;;4.45;4.00;;;-0.30;99.90;;;;;;5032449;28;20267;-67
2022/01/14 08:09:06;;;;;;;4.10;3.70;;;1.00;99.90;;;;;;5034523;28;20664;-67
2022/01/14 08:11:33;;;;;;;4.43;3.78;;;1.90;99.90;;;;;;5036461;28;20229;-67
2022/01/14 08:14:01;;;;;;;3.88;3.45;;;2.50;99.90;;;;;;5036524;28;20201;-67
2022/01/14 08:16:28;;;;;;;7.50;5.47;;;3.00;99.90;;;;;;5036280;28;20313;-67
2022/01/14 08:18:54;;;;;;;6.95;5.40;;;3.40;99.90;;;;;;5036373;28;20233;-67
2022/01/14 08:21:21;;;;;;;7.53;5.25;;;3.60;99.90;;;;;;5036279;28;20696;-67
2022/01/14 08:23:48;;;;;;;7.65;5.78;;;4.00;99.90;;;;;;5035909;28;20740;-67
2022/01/14 08:26:15;;;;;;;8.45;5.32;;;4.20;99.90;;;;;;5035807;28;20221;-67
2022/01/14 08:28:42;;;;;;;10.85;7.22;;;4.20;99.90;;;;;;5035790;28;20677;-65
2022/01/14 08:31:11;;;;;;;11.00;6.50;;;3.90;96.40;;;;;;5035751;28;20289;-65
2022/01/14 08:33:38;;;;;;;11.95;6.63;;;3.30;95.10;;;;;;5035989;28;20212;-65
2022/01/14 08:36:05;;;;;;;10.82;7.10;;;2.70;99.90;;;;;;5035907;28;20222;-65
2022/01/14 08:38:32;;;;;;;9.93;6.55;;;2.20;99.90;;;;;;5035823;28;20284;-65
2022/01/14 08:40:59;;;;;;;11.43;7.00;;;1.70;99.90;;;;;;5035781;28;20248;-65
2022/01/14 08:43:26;;;;;;;7.55;5.18;;;1.40;99.90;;;;;;5035806;28;20284;-65
2022/01/14 08:45:53;;;;;;;9.10;6.32;;;1.10;99.90;;;;;;5035752;28;20587;-65
2022/01/14 08:48:21;;;;;;;7.55;5.80;;;0.80;99.90;;;;;;5036613;28;20263;-65
2022/01/14 08:50:48;;;;;;;7.03;5.35;;;0.70;99.90;;;;;;5035596;28;20229;-65
2022/01/14 08:53:15;;;;;;;8.02;5.05;;;0.60;99.90;;;;;;5035500;28;20236;-65
2022/01/14 08:55:42;;;;;;;5.88;4.65;;;0.50;99.90;;;;;;5035033;28;20256;-65
2022/01/14 08:58:10;;;;;;;5.28;4.68;;;0.40;99.90;;;;;;5035486;28;20385;-65
2022/01/14 09:00:37;;;;;;;7.35;4.82;;;0.40;99.90;;;;;;5035405;28;20197;-65
2022/01/14 09:03:04;;;;;;;7.13;5.35;;;0.40;99.90;;;;;;5035087;28;20221;-65
2022/01/14 09:05:33;;;;;;;8.02;4.82;;;0.40;99.90;;;;;;5035318;28;20225;-65
2022/01/14 09:08:02;;;;;;;8.77;5.18;;;0.40;99.90;;;;;;5035465;28;20208;-66
2022/01/14 09:10:29;;;;;;;7.35;4.95;;;0.40;99.90;;;;;;5035519;28;20292;-66
2022/01/14 09:12:56;;;;;;;5.88;5.22;;;0.40;99.90;;;;;;5035319;28;20228;-66
2022/01/14 09:15:23;;;;;;;7.15;5.18;;;0.50;99.90;;;;;;5035213;28;20221;-66
2022/01/14 09:17:49;;;;;;;5.45;4.82;;;0.50;99.90;;;;;;5035168;28;20202;-66
2022/01/14 09:20:16;;;;;;;5.82;5.15;;;0.50;99.90;;;;;;5035143;28;20287;-66
2022/01/14 09:22:49;;;;;;;7.68;5.32;;;0.50;99.90;;;;;;5035067;28;20304;-66
2022/01/14 09:25:17;;;;;;;9.55;6.40;;;0.50;99.90;;;;;;5035000;28;20224;-66
2022/01/14 09:27:44;;;;;;;8.48;5.75;;;0.60;99.90;;;;;;5035034;28;20292;-66
2022/01/14 09:30:12;;;;;;;6.60;5.75;;;0.70;99.90;;;;;;5034978;28;20205;-66
2022/01/14 09:32:39;;;;;;;7.65;5.43;;;0.70;99.90;;;;;;5034934;28;20621;-66
2022/01/14 09:35:08;;;;;;;9.10;6.00;;;0.80;99.90;;;;;;5034812;28;20655;-66
2022/01/14 09:37:35;;;;;;;7.90;6.13;;;0.90;99.90;;;;;;5035046;28;20209;-66
2022/01/14 09:40:04;;;;;;;8.85;6.40;;;0.90;99.90;;;;;;5034833;28;20292;-66
2022/01/14 09:42:31;;;;;;;7.18;6.00;;;0.90;99.90;;;;;;5034932;28;20227;-66
2022/01/14 09:44:59;;;;;;;7.55;5.93;;;1.00;99.90;;;;;;5034629;28;20217;-66
2022/01/14 09:47:26;;;;;;;6.38;5.57;;;1.10;99.90;;;;;;5034610;28;20210;-65
2022/01/14 09:49:53;;;;;;;6.25;5.43;;;1.20;99.90;;;;;;5034317;28;20641;-65
2022/01/14 09:52:20;;;;;;;8.20;5.68;;;1.30;99.90;;;;;;5034488;28;20193;-65
2022/01/14 09:54:50;;;;;;;7.40;6.22;;;1.30;99.90;;;;;;5034439;28;20228;-66
2022/01/14 09:57:19;;;;;;;8.52;5.43;;;1.30;99.90;;;;;;5034454;28;20251;-65
2022/01/14 09:59:46;;;;;;;6.88;5.53;;;1.30;99.90;;;;;;5034341;28;20288;-65
2022/01/14 10:02:29;;;;;;;6.75;5.55;;;1.30;99.90;;;;;;5033991;28;20225;-65
2022/01/14 10:04:56;;;;;;;7.88;5.72;;;1.30;99.90;;;;;;5034224;28;20227;-65
2022/01/14 10:07:23;;;;;;;6.85;5.75;;;1.30;99.90;;;;;;5033611;28;20631;-66
2022/01/14 10:09:56;;;;;;;7.85;5.43;;;1.30;99.90;;;;;;5033654;28;20197;-66
2022/01/14 10:12:24;;;;;;;6.25;4.72;;;1.40;99.90;;;;;;5034255;28;20193;-66
2022/01/14 10:14:55;;;;;;;5.85;5.13;;;1.60;99.90;;;;;;5034031;28;20221;-65
2022/01/14 10:17:23;;;;;;;5.65;4.70;;;1.60;99.90;;;;;;5034341;28;20299;-66
2022/01/14 10:19:50;;;;;;;5.90;4.93;;;1.70;99.90;;;;;;5034216;28;20201;-66
2022/01/14 10:22:24;;;;;;;5.35;4.63;;;1.70;99.90;;;;;;5034578;28;20217;-66
2022/01/14 10:24:57;;;;;;;6.25;4.93;;;1.80;99.90;;;;;;5035173;28;20228;-66
2022/01/14 10:27:35;;;;;;;5.38;4.88;;;1.90;99.90;;;;;;5034798;28;20193;-66
2022/01/14 10:30:14;;;;;;;5.13;4.63;;;2.00;99.90;;;;;;5034646;28;20185;-66
2022/01/14 10:32:42;;;;;;;4.57;4.15;;;2.10;99.90;;;;;;5036310;28;20196;-66
2022/01/14 10:35:13;;;;;;;6.53;4.85;;;2.20;99.90;;;;;;5039036;28;20268;-66
2022/01/14 10:37:41;;;;;;;6.18;4.82;;;2.20;99.90;;;;;;5035471;28;20634;-67
2022/01/14 10:40:16;;;;;;;5.03;4.47;;;2.30;99.90;;;;;;5036660;28;20228;-67
2022/01/14 10:42:45;;;;;;;4.88;4.22;;;2.30;99.90;;;;;;5038136;28;20271;-66
2022/01/14 10:45:19;;;;;;;8.95;5.13;;;2.30;99.90;;;;;;5037759;28;20221;-66
2022/01/14 10:48:01;;;;;;;5.18;4.43;;;2.40;99.90;;;;;;5036629;28;20204;-66
2022/01/14 10:50:32;;;;;;;6.93;5.07;;;2.40;99.90;;;;;;5037013;28;20200;-66
2022/01/14 10:52:59;;;;;;;5.65;4.85;;;2.40;99.90;;;;;;5036653;28;20201;-66
2022/01/14 10:55:32;;;;;;;6.45;5.22;;;2.40;99.90;;;;;;5036557;28;20284;-66
2022/01/14 10:58:02;;;;;;;6.05;5.28;;;2.60;99.90;;;;;;5038237;28;20208;-66
2022/01/14 11:00:30;;;;;;;6.47;5.65;;;2.60;99.90;;;;;;5037998;28;20207;-66
2022/01/14 11:02:58;;;;;;;6.72;5.35;;;2.70;99.90;;;;;;5038514;28;20225;-66
2022/01/14 11:05:26;;;;;;;6.68;5.57;;;2.80;99.90;;;;;;5037405;28;20298;-66
2022/01/14 11:07:53;;;;;;;5.68;5.05;;;2.80;99.90;;;;;;5037211;28;20245;-66
2022/01/14 11:10:25;;;;;;;5.53;5.03;;;2.80;99.90;;;;;;5037303;28;20205;-66
2022/01/14 11:12:55;;;;;;;5.28;4.70;;;2.90;99.90;;;;;;5037282;28;20182;-66
2022/01/14 11:15:25;;;;;;;6.07;5.10;;;2.90;99.90;;;;;;5037868;28;20221;-66
2022/01/14 11:17:55;;;;;;;5.47;4.75;;;3.00;99.90;;;;;;5036690;28;20189;-66
2022/01/14 11:20:29;;;;;;;4.47;4.07;;;3.00;99.90;;;;;;5037037;28;20216;-66
2022/01/14 11:23:15;;;;;;;4.93;4.38;;;3.10;99.90;;;;;;5036645;28;20300;-65
2022/01/14 11:25:46;;;;;;;4.43;4.03;;;3.10;99.90;;;;;;5037231;28;20275;-65
2022/01/14 11:28:18;;;;;;;4.63;4.25;;;3.10;99.90;;;;;;5037546;28;20196;-65
2022/01/14 11:30:46;;;;;;;3.75;3.47;;;3.20;99.90;;;;;;5037271;28;20209;-65
2022/01/14 11:33:15;;;;;;;4.38;3.97;;;3.30;99.90;;;;;;5037777;28;20220;-65
2022/01/14 11:35:55;;;;;;;4.75;3.80;;;3.20;99.90;;;;;;5036196;28;20265;-65
2022/01/14 11:38:40;;;;;;;4.50;4.10;;;3.30;99.90;;;;;;5036597;28;20201;-65
2022/01/14 11:41:09;;;;;;;4.45;4.03;;;3.30;99.90;;;;;;5038157;28;20272;-65
2022/01/14 11:43:45;;;;;;;5.45;4.40;;;3.30;99.90;;;;;;5039247;28;20696;-65
2022/01/14 11:46:16;;;;;;;4.35;3.88;;;3.30;99.90;;;;;;5040765;28;20292;-65
2022/01/14 11:48:47;;;;;;;4.38;3.88;;;3.40;99.90;;;;;;5040119;28;20189;-66
2022/01/14 11:51:16;;;;;;;4.22;3.83;;;3.40;99.90;;;;;;5040538;28;20186;-66
2022/01/14 11:53:50;;;;;;;4.28;3.88;;;3.40;99.90;;;;;;5040920;28;20200;-66
2022/01/14 11:56:54;;;;;;;3.72;2.90;;;3.50;99.90;;;;;;5040718;28;20221;-66
2022/01/14 11:59:44;;;;;;;3.75;3.25;;;3.50;99.90;;;;;;5041452;28;20193;-65
2022/01/14 12:02:35;;;;;;;3.25;2.92;;;3.50;99.90;;;;;;5040367;28;20209;-66
2022/01/14 12:05:07;;;;;;;3.13;2.78;;;3.50;99.90;;;;;;5041038;28;20308;-66
2022/01/14 12:08:12;;;;;;;2.50;2.30;;;3.50;99.90;;;;;;5041262;28;20722;-66
2022/01/14 12:10:41;;;;;;;3.05;2.72;;;3.60;99.90;;;;;;5039482;28;20683;-66
2022/01/14 12:13:24;;;;;;;2.92;2.63;;;3.60;99.90;;;;;;5036555;28;20288;-66
2022/01/14 12:15:57;;;;;;;2.20;2.10;;;3.60;99.90;;;;;;5036179;28;20236;-66
2022/01/14 12:19:17;;;;;;;2.60;2.40;;;3.60;99.90;;;;;;5037203;28;20182;-66
2022/01/14 12:21:56;;;;;;;2.08;1.98;;;3.60;99.90;;;;;;5035990;28;20560;-66
2022/01/14 12:24:33;;;;;;;2.58;1.90;;;3.60;99.90;;;;;;5036217;28;20276;-66
2022/01/14 12:27:23;;;;;;;2.10;1.92;;;3.60;99.90;;;;;;5035946;28;20188;-66
2022/01/14 12:29:51;;;;;;;1.60;1.50;;;3.70;99.90;;;;;;5036163;28;20255;-65
2022/01/14 12:32:20;;;;;;;1.80;1.70;;;3.70;99.90;;;;;;5036220;28;20204;-65
2022/01/14 12:35:04;;;;;;;1.30;1.30;;;3.70;99.90;;;;;;5035987;28;20315;-65
2022/01/14 12:37:34;;;;;;;1.63;1.52;;;3.70;99.90;;;;;;5035726;28;20228;-66
2022/01/14 12:40:06;;;;;;;1.27;1.27;;;3.70;99.90;;;;;;5035928;28;20284;-67
2022/01/14 12:42:32;;;;;;;1.33;1.33;;;3.70;99.90;;;;;;5035887;28;20309;-67
2022/01/14 12:45:00;;;;;;;1.48;1.48;;;3.70;99.90;;;;;;5035611;28;20232;-67
2022/01/14 12:47:33;;;;;;;1.60;1.50;;;3.60;99.90;;;;;;5035928;28;20233;-67
2022/01/14 12:50:04;;;;;;;1.60;1.50;;;3.60;99.90;;;;;;5035831;28;20240;-67
2022/01/14 12:52:38;;;;;;;1.15;1.15;;;3.60;99.90;;;;;;5035861;28;20232;-67
2022/01/14 12:55:06;;;;;;;1.52;1.48;;;3.60;99.90;;;;;;5035276;28;20221;-67
2022/01/14 12:57:33;;;;;;;1.40;1.40;;;3.50;99.90;;;;;;5035320;28;20691;-67
2022/01/14 13:00:00;;;;;;;1.50;1.40;;;3.50;99.90;;;;;;5035598;28;20292;-68
2022/01/14 13:02:29;;;;;;;1.23;1.23;;;3.50;99.90;;;;;;5035582;28;20225;-68
2022/01/14 13:05:01;;;;;;;1.77;1.67;;;3.40;99.90;;;;;;5035716;28;20229;-68
2022/01/14 13:07:29;;;;;;;1.98;1.48;;;3.40;99.90;;;;;;5035288;28;20292;-67
2022/01/14 13:09:57;;;;;;;1.73;1.63;;;3.40;99.90;;;;;;5035381;28;20288;-67
2022/01/14 13:12:29;;;;;;;1.75;1.23;;;3.30;99.90;;;;;;5035047;28;20233;-67
2022/01/14 13:14:59;;;;;;;1.33;1.33;;;3.30;99.90;;;;;;5035226;28;20279;-67
2022/01/14 13:17:29;;;;;;;1.40;1.38;;;3.30;99.90;;;;;;5035310;28;20197;-67
2022/01/14 13:20:00;;;;;;;1.30;1.20;;;3.20;99.90;;;;;;5035193;28;20207;-67
2022/01/14 13:22:30;;;;;;;1.17;1.17;;;3.20;99.90;;;;;;5034967;28;20312;-69
2022/01/14 13:25:01;;;;;;;1.20;1.20;;;3.20;99.90;;;;;;5035043;28;20221;-69
2022/01/14 13:27:29;;;;;;;1.10;1.10;;;3.10;99.90;;;;;;5035185;28;20610;-70
2022/01/14 13:50:43;;;;;;;1.50;1.50;;;2.60;99.90;;;;;;5219320;22;20334;-70
2022/01/14 13:53:11;;;;;;;1.58;1.48;;;2.60;99.90;;;;;;5074178;28;20244;-69
2022/01/14 13:55:41;;;;;;;1.20;1.20;;;2.60;99.90;;;;;;5074381;28;20283;-69
2022/01/14 13:58:13;;;;;;;1.52;1.42;;;2.50;99.90;;;;;;5074039;28;20219;-69
2022/01/14 14:00:41;;;;;;;1.20;1.20;;;2.50;99.90;;;;;;5074319;28;20227;-69
2022/01/14 14:03:19;;;;;;;1.48;1.38;;;2.40;99.90;;;;;;5074409;28;20255;-70
2022/01/14 14:05:52;;;;;;;1.48;1.38;;;2.40;99.90;;;;;;5073483;28;20238;-69
2022/01/14 14:08:35;;;;;;;1.63;1.55;;;2.40;99.90;;;;;;5074421;28;20180;-69
2022/01/14 14:16:50;;;;;;;1.77;1.67;;;2.20;99.90;;;;;;5052738;28;20647;-69
2022/01/14 14:19:17;;;;;;;1.90;1.80;;;2.20;99.90;;;;;;5073870;28;20219;-69
2022/01/14 14:21:46;;;;;;;1.92;1.83;;;2.20;99.90;;;;;;5074013;28;20282;-69
2022/01/14 14:24:14;;;;;;;1.38;1.38;;;2.10;99.90;;;;;;5073872;28;20554;-69
2022/01/14 14:26:43;;;;;;;1.80;1.80;;;2.10;99.90;;;;;;5073739;28;20207;-69
2022/01/14 14:29:25;;;;;;;1.50;1.50;;;2.10;99.90;;;;;;5073396;28;20725;-69
2022/01/14 14:31:53;;;;;;;1.40;1.40;;;2.00;99.90;;;;;;5073916;28;20214;-69
2022/01/14 14:34:22;;;;;;;1.75;1.73;;;2.00;99.90;;;;;;5073785;28;20234;-69
2022/01/14 14:36:51;;;;;;;1.70;1.70;;;2.00;99.90;;;;;;5073884;28;20204;-68
2022/01/14 14:39:18;;;;;;;1.60;1.50;;;2.00;99.90;;;;;;5073892;28;20220;-68
2022/01/14 14:41:45;;;;;;;1.45;1.45;;;2.00;99.90;;;;;;5073776;28;20273;-68
2022/01/14 14:44:12;;;;;;;1.77;1.70;;;1.90;99.90;;;;;;5073823;28;20585;-69
2022/01/14 14:46:43;;;;;;;1.30;1.30;;;1.90;99.90;;;;;;5073472;28;20667;-68
2022/01/14 14:49:10;;;;;;;1.48;1.48;;;1.90;99.90;;;;;;5073796;28;20216;-68
2022/01/14 14:51:39;;;;;;;1.42;1.42;;;1.90;99.90;;;;;;5073533;28;20294;-68
2022/01/14 14:54:08;;;;;;;1.33;1.33;;;1.90;99.90;;;;;;5073648;28;20206;-68
2022/01/14 14:56:35;;;;;;;1.33;1.30;;;1.90;99.90;;;;;;5073572;28;20200;-68
2022/01/14 14:59:03;;;;;;;1.90;1.80;;;1.90;99.90;;;;;;5073512;28;20224;-69
2022/01/14 15:01:30;;;;;;;1.42;1.42;;;1.90;99.90;;;;;;5074041;28;20253;-68
2022/01/14 15:03:57;;;;;;;1.30;1.30;;;1.90;99.90;;;;;;5073576;28;20311;-68
2022/01/14 15:06:24;;;;;;;1.52;1.52;;;1.90;99.90;;;;;;5073570;28;20227;-67
2022/01/14 15:08:51;;;;;;;1.50;1.50;;;1.90;99.90;;;;;;5073408;28;20285;-68
2022/01/14 15:11:19;;;;;;;1.40;1.40;;;1.90;99.90;;;;;;5073313;28;20689;-71
2022/01/14 15:13:46;;;;;;;1.88;1.77;;;1.80;99.90;;;;;;5073461;28;20196;-71
2022/01/14 15:16:26;;;;;;;1.40;1.40;;;1.90;99.90;;;;;;5073530;28;20286;-71
2022/01/14 15:18:53;;;;;;;1.38;1.38;;;1.80;99.90;;;;;;5076526;28;20698;-71
2022/01/14 15:21:20;;;;;;;1.73;1.73;;;1.90;99.90;;;;;;5077351;28;20306;-72
2022/01/14 15:23:50;;;;;;;2.17;2.00;;;1.80;99.90;;;;;;5077977;28;20222;-72
2022/01/14 15:26:20;;;;;;;1.50;1.50;;;1.80;99.90;;;;;;5079314;28;20204;-72
2022/01/14 15:28:47;;;;;;;2.10;2.00;;;1.80;99.90;;;;;;5078546;28;20200;-71
2022/01/14 15:31:14;;;;;;;2.05;1.95;;;1.80;99.90;;;;;;5077459;28;20766;-71
2022/01/14 15:33:41;;;;;;;1.85;1.75;;;1.80;99.90;;;;;;5077316;28;20694;-72
2022/01/14 15:36:08;;;;;;;2.03;1.92;;;1.70;99.90;;;;;;5077446;28;20203;-69
2022/01/14 15:38:35;;;;;;;1.90;1.77;;;1.70;99.90;;;;;;5077285;28;20286;-69
2022/01/14 15:41:03;;;;;;;1.88;1.77;;;1.70;99.90;;;;;;5077445;28;20613;-70
2022/01/14 15:43:33;;;;;;;1.90;1.80;;;1.60;99.90;;;;;;5077107;28;20226;-70
2022/01/14 15:46:01;;;;;;;2.17;2.00;;;1.60;99.90;;;;;;5077168;28;20291;-70
2022/01/14 15:48:28;;;;;;;1.67;1.67;;;1.60;99.90;;;;;;5076586;28;20657;-70
2022/01/14 15:50:56;;;;;;;1.60;1.50;;;1.50;99.90;;;;;;5076578;28;20669;-70
2022/01/14 15:53:23;;;;;;;1.77;1.67;;;1.50;99.90;;;;;;5077235;28;20196;-70
2022/01/14 15:55:52;;;;;;;1.83;1.73;;;1.40;99.90;;;;;;5076935;28;20210;-70
2022/01/14 15:58:19;;;;;;;1.42;1.42;;;1.40;99.90;;;;;;5076794;28;20224;-70
2022/01/14 16:00:47;;;;;;;1.33;1.33;;;1.40;99.90;;;;;;5076921;28;20216;-70
2022/01/14 16:03:14;;;;;;;1.50;1.50;;;1.30;99.90;;;;;;5077009;28;20232;-70
2022/01/14 16:05:43;;;;;;;1.77;1.67;;;1.30;99.90;;;;;;5077047;28;20187;-70
2022/01/14 16:08:10;;;;;;;1.60;1.52;;;1.30;99.90;;;;;;5077931;28;20184;-70
2022/01/14 16:10:37;;;;;;;1.70;1.60;;;1.30;99.90;;;;;;5078134;28;20628;-70
2022/01/14 16:13:06;;;;;;;1.67;1.58;;;1.20;99.90;;;;;;5078644;28;20235;-70
2022/01/14 16:15:33;;;;;;;1.70;1.60;;;1.10;99.90;;;;;;5076231;28;20196;-70
2022/01/14 16:18:01;;;;;;;1.73;1.73;;;1.10;99.90;;;;;;5076540;28;20202;-70
2022/01/14 16:20:28;;;;;;;2.22;2.10;;;1.00;99.90;;;;;;5076388;28;20224;-70
2022/01/14 16:22:55;;;;;;;1.90;1.90;;;1.00;99.90;;;;;;5076631;28;20235;-70
2022/01/14 16:25:22;;;;;;;2.05;1.95;;;1.00;99.90;;;;;;5076690;28;20220;-70
2022/01/14 16:27:49;;;;;;;2.30;2.20;;;0.90;99.90;;;;;;5077163;28;20291;-70
2022/01/14 16:30:18;;;;;;;2.20;2.10;;;0.90;99.90;;;;;;5075385;28;20311;-71
2022/01/14 16:32:46;;;;;;;2.50;2.40;;;0.80;99.90;;;;;;5076080;28;20737;-70
2022/01/14 16:35:15;;;;;;;2.08;1.98;;;0.80;99.90;;;;;;5075676;28;20196;-70
2022/01/14 16:37:42;;;;;;;2.35;2.15;;;0.80;99.90;;;;;;5076182;28;20184;-72
2022/01/14 16:40:11;;;;;;;2.25;2.10;;;0.70;99.90;;;;;;5075918;28;20223;-71
2022/01/14 16:42:39;;;;;;;1.85;1.85;;;0.70;99.90;;;;;;5076244;28;20287;-70
2022/01/14 16:45:09;;;;;;;2.00;1.90;;;0.70;99.90;;;;;;5075673;28;20602;-71
2022/01/14 16:47:36;;;;;;;2.13;2.03;;;0.60;99.90;;;;;;5076215;28;20597;-71
2022/01/14 16:50:04;;;;;;;2.08;1.98;;;0.60;99.90;;;;;;5076031;28;20222;-71
2022/01/14 16:52:32;;;;;;;2.13;1.95;;;0.60;99.90;;;;;;5075606;28;20208;-71
2022/01/14 16:54:59;;;;;;;2.05;1.95;;;0.50;99.90;;;;;;5075391;28;20755;-71
2022/01/14 16:57:26;;;;;;;1.80;1.80;;;0.40;99.90;;;;;;5075528;28;20271;-71
2022/01/14 16:59:54;;;;;;;1.65;1.65;;;0.40;99.90;;;;;;5075364;28;20219;-70
2022/01/14 17:02:21;;;;;;;1.98;1.88;;;0.40;99.90;;;;;;5075275;28;20185;-71
2022/01/14 17:04:48;;;;;;;2.22;2.10;;;0.30;99.90;;;;;;5075532;28;20226;-70
2022/01/14 17:07:19;;;;;;;2.38;2.28;;;0.30;99.90;;;;;;5075569;28;20207;-71
2022/01/14 17:09:48;;;;;;;2.22;2.03;;;0.30;99.90;;;;;;5075601;28;20637;-71
2022/01/14 17:12:16;;;;;;;2.35;2.25;;;0.30;99.90;;;;;;5075056;28;20726;-71
2022/01/14 17:14:43;;;;;;;2.40;2.30;;;0.30;99.90;;;;;;5075070;28;20663;-70
2022/01/14 17:17:11;;;;;;;2.42;2.20;;;0.30;99.90;;;;;;5075025;28;20287;-71
2022/01/14 17:19:38;;;;;;;2.30;2.20;;;0.30;99.90;;;;;;5074833;28;20813;-71
2022/01/14 17:22:05;;;;;;;1.80;1.80;;;0.20;99.90;;;;;;5075188;28;20306;-70
2022/01/14 17:24:33;;;;;;;2.53;2.42;;;0.20;99.90;;;;;;5075096;28;20242;-71
2022/01/14 17:27:02;;;;;;;2.45;2.35;;;0.10;99.90;;;;;;5075023;28;20286;-67
2022/01/14 17:29:29;;;;;;;2.42;2.33;;;0.10;99.90;;;;;;5075160;28;20311;-70
2022/01/14 17:31:56;;;;;;;2.33;2.22;;;0.10;99.90;;;;;;5075051;28;20249;-71
2022/01/14 17:34:23;;;;;;;2.85;2.42;;;0.10;99.90;;;;;;5074945;28;20274;-69
2022/01/14 17:36:51;;;;;;;2.10;2.00;;;0.10;99.90;;;;;;5074912;28;20271;-69
2022/01/14 17:39:19;;;;;;;2.75;2.55;;;0.00;99.90;;;;;;5074774;28;20228;-69
2022/01/14 17:41:48;;;;;;;2.40;2.30;;;0.00;99.90;;;;;;5074733;28;20206;-69
2022/01/14 17:44:19;;;;;;;2.17;2.08;;;0.00;99.90;;;;;;5074627;28;20232;-68
2022/01/14 17:46:47;;;;;;;2.40;2.20;;;0.00;99.90;;;;;;5074591;28;20650;-68
2022/01/14 17:49:15;;;;;;;2.25;2.03;;;0.00;99.90;;;;;;5074488;28;20310;-69
2022/01/14 17:51:44;;;;;;;2.22;2.13;;;0.00;99.90;;;;;;5074371;28;20302;-69
2022/01/14 17:54:12;;;;;;;2.58;2.42;;;0.00;99.90;;;;;;5074535;28;20227;-70
2022/01/14 17:56:39;;;;;;;2.35;2.17;;;-0.10;99.90;;;;;;5074137;28;20738;-68
2022/01/14 17:59:05;;;;;;;2.45;2.35;;;-0.10;99.90;;;;;;5074372;28;20259;-69
2022/01/14 18:01:34;;;;;;;2.35;2.25;;;-0.10;99.90;;;;;;5074385;28;20236;-69
2022/01/14 18:04:01;;;;;;;3.00;2.40;;;-0.20;99.90;;;;;;5074262;28;20220;-70
2022/01/14 18:06:28;;;;;;;1.92;1.83;;;-0.20;99.90;;;;;;5074987;28;20204;-71
2022/01/14 18:08:55;;;;;;;2.00;1.90;;;-0.20;99.90;;;;;;5074094;28;20307;-70
2022/01/14 18:11:27;;;;;;;2.33;2.22;;;-0.20;99.90;;;;;;5074125;28;20202;-70
2022/01/14 18:14:00;;;;;;;1.60;1.58;;;-0.20;99.90;;;;;;5074437;28;20267;-70
2022/01/14 18:16:27;;;;;;;1.90;1.80;;;-0.20;99.90;;;;;;5074187;28;20184;-70
2022/01/14 18:18:57;;;;;;;1.95;1.85;;;-0.20;99.90;;;;;;5073986;28;20310;-70
2022/01/14 18:21:24;;;;;;;2.10;2.00;;;-0.20;99.90;;;;;;5073930;28;20211;-70
2022/01/14 18:23:52;;;;;;;2.13;2.03;;;-0.20;99.90;;;;;;5074067;28;20282;-69
2022/01/14 18:26:19;;;;;;;2.08;1.98;;;-0.20;99.90;;;;;;5074020;28;20291;-69
2022/01/14 18:28:46;;;;;;;2.00;1.90;;;-0.30;99.90;;;;;;5073743;28;20231;-69
2022/01/14 18:31:13;;;;;;;1.73;1.63;;;-0.30;99.90;;;;;;5074101;28;20218;-70
2022/01/14 18:33:40;;;;;;;2.30;2.13;;;-0.30;99.90;;;;;;5073915;28;20249;-70
2022/01/14 18:36:11;;;;;;;2.20;2.10;;;-0.30;99.90;;;;;;5073903;28;20247;-70